Fisher, Arkansas
Current Conditions -  °F | °C
As of 7:56 PM on Saturday 20 Dec 2014 (Local Time) from KM19 Reporting Station
Overcast Overcast  
Wind Chill: 39°   Ceiling: 2700
Heat Index: 39°   Visibility: 7mi
Dew Point: 38°   Wind: 3mph
Humidity: 97%   Direction: 40°NE
Pressure: 30.27"   Gusts: NA
Location:  35.49°N, 90.97°W
Report Text: KM19 210156Z AUTO 04003KT 7SM OVC027 04/03 A3027 RMK AO2 T00380033 SLP251
Loading
Personal Weather Stations






























Interactive Weather Map New forecast layout! Learn more

10-Day Weather Forecast

Advertisements
Track Severe Weather on mobile